createdAt,value
2017-12-25T00:01:45.614Z,18.10
2017-12-25T00:04:16.056Z,18.57
2017-12-25T00:06:46.561Z,19.27
2017-12-25T00:09:16.976Z,20.02
2017-12-25T00:11:47.560Z,19.73
2017-12-25T00:14:17.677Z,22.85
2017-12-25T00:16:48.018Z,21.10
2017-12-25T00:19:18.039Z,22.87
2017-12-25T00:21:48.176Z,24.98
2017-12-25T00:24:19.524Z,24.87
2017-12-25T00:26:49.671Z,23.20
2017-12-25T00:29:19.752Z,20.52
2017-12-25T00:31:51.242Z,22.00
2017-12-25T00:34:21.330Z,18.77
2017-12-25T00:36:52.142Z,20.67
2017-12-25T00:39:23.052Z,18.58
2017-12-25T00:41:53.215Z,20.30
2017-12-25T00:44:24.198Z,19.10
2017-12-25T00:46:54.343Z,20.70
2017-12-25T00:49:24.540Z,19.33
2017-12-25T00:51:54.706Z,19.20
2017-12-25T00:54:25.539Z,21.12
2017-12-25T00:56:56.569Z,19.87
2017-12-25T00:59:27.639Z,19.60
2017-12-25T01:01:58.843Z,19.40
2017-12-25T01:04:29.129Z,21.12
2017-12-25T01:06:59.894Z,20.85
2017-12-25T01:09:30.267Z,20.60
2017-12-25T01:12:00.722Z,19.70
2017-12-25T01:14:30.795Z,19.77
2017-12-25T01:17:00.883Z,18.73
2017-12-25T01:19:31.430Z,19.20
2017-12-25T01:22:02.126Z,18.40
2017-12-25T01:24:33.034Z,20.10
2017-12-25T01:27:03.549Z,21.50
2017-12-25T01:29:33.647Z,19.62
2017-12-25T01:32:03.949Z,19.87
2017-12-25T01:34:34.849Z,17.70
2017-12-25T01:37:05.139Z,18.15
2017-12-25T01:39:35.478Z,20.42
2017-12-25T01:42:06.420Z,16.85
2017-12-25T01:44:36.514Z,17.40
2017-12-25T01:47:08.199Z,18.95
2017-12-25T01:49:38.819Z,19.20
2017-12-25T01:52:09.395Z,18.83
2017-12-25T01:54:40.487Z,20.40
2017-12-25T01:57:12.024Z,23.60
2017-12-25T01:59:44.370Z,22.40
2017-12-25T02:02:14.803Z,21.90
2017-12-25T02:04:46.879Z,21.00
2017-12-25T02:07:27.820Z,20.65
2017-12-25T02:09:58.145Z,22.60
2017-12-25T02:12:28.466Z,20.70
2017-12-25T02:14:58.988Z,21.55
2017-12-25T02:17:31.537Z,23.90
2017-12-25T02:20:02.494Z,23.15
2017-12-25T02:22:33.055Z,23.38
2017-12-25T02:25:04.006Z,22.20
2017-12-25T02:27:34.505Z,22.10
2017-12-25T02:30:04.671Z,21.42
2017-12-25T02:32:34.754Z,19.97
2017-12-25T02:35:05.171Z,20.88
2017-12-25T02:37:35.446Z,21.20
2017-12-25T02:40:05.858Z,21.10
2017-12-25T02:42:36.522Z,19.80
2017-12-25T02:45:06.665Z,19.12
2017-12-25T02:47:36.840Z,17.70
2017-12-25T02:50:09.123Z,16.50
2017-12-25T02:52:39.465Z,18.62
2017-12-25T02:55:10.542Z,17.20
2017-12-25T02:57:41.170Z,18.37
2017-12-25T03:00:11.267Z,18.37
2017-12-25T03:02:41.365Z,21.13
2017-12-25T03:05:11.795Z,20.98
2017-12-25T03:07:42.083Z,20.40
2017-12-25T03:10:12.223Z,21.67
2017-12-25T03:12:43.586Z,21.37
2017-12-25T03:15:13.605Z,22.05
2017-12-25T03:17:44.441Z,24.17
2017-12-25T03:20:15.136Z,28.50
2017-12-25T03:24:11.142Z,30.90
2017-12-25T03:26:42.464Z,26.98
2017-12-25T03:29:12.955Z,28.62
2017-12-25T03:31:47.793Z,24.12
2017-12-25T03:35:42.457Z,23.80
2017-12-25T03:38:14.637Z,23.23
2017-12-25T03:40:46.279Z,26.03
2017-12-25T03:43:16.841Z,23.25
2017-12-25T03:45:47.736Z,22.75
2017-12-25T03:48:18.356Z,21.33
2017-12-25T03:50:49.054Z,22.50
2017-12-25T03:53:20.431Z,21.92
2017-12-25T03:55:50.816Z,20.95
2017-12-25T03:58:21.150Z,20.27
2017-12-25T04:00:52.325Z,20.05
2017-12-25T04:03:23.092Z,19.80
2017-12-25T04:05:54.427Z,18.90
2017-12-25T04:08:25.424Z,18.58
2017-12-25T04:10:56.101Z,18.10
2017-12-25T04:13:27.482Z,17.87
2017-12-25T04:15:59.057Z,18.10
2017-12-25T04:18:30.656Z,17.35
2017-12-25T04:21:01.411Z,18.10
2017-12-25T04:23:32.464Z,19.80
2017-12-25T04:26:02.712Z,20.40
2017-12-25T04:28:34.237Z,21.90
2017-12-25T04:31:04.552Z,24.52
2017-12-25T04:33:34.797Z,21.12
2017-12-25T04:36:05.950Z,20.10
2017-12-25T04:38:36.566Z,21.40
2017-12-25T04:41:07.382Z,22.00
2017-12-25T04:43:39.522Z,23.73
2017-12-25T04:46:10.442Z,23.87
2017-12-25T04:48:41.434Z,24.83
2017-12-25T04:51:13.345Z,26.55
2017-12-25T04:53:44.139Z,23.65
2017-12-25T04:56:15.486Z,22.95
2017-12-25T04:58:46.582Z,23.30
2017-12-25T05:01:17.211Z,23.90
2017-12-25T05:03:47.830Z,24.77
2017-12-25T05:06:18.459Z,26.77
2017-12-25T05:08:50.281Z,23.48
2017-12-25T05:11:21.390Z,25.25
2017-12-25T05:13:52.012Z,24.15
2017-12-25T05:16:22.624Z,23.83
2017-12-25T05:18:53.010Z,25.88
2017-12-25T05:21:23.362Z,30.25
2017-12-25T05:23:54.412Z,25.15
2017-12-25T05:26:25.401Z,29.67
2017-12-25T05:28:56.025Z,27.50
2017-12-25T05:31:28.173Z,24.80
2017-12-25T05:33:58.916Z,27.90
2017-12-25T05:36:29.503Z,25.43
2017-12-25T05:39:00.950Z,26.02
2017-12-25T05:41:31.730Z,23.67
2017-12-25T05:44:02.421Z,23.90
2017-12-25T05:46:33.349Z,26.83
2017-12-25T05:49:04.269Z,28.38
2017-12-25T05:51:34.548Z,33.03
2017-12-25T05:54:04.784Z,43.80
2017-12-25T05:56:35.548Z,39.27
2017-12-25T05:59:06.469Z,37.58
2017-12-25T06:01:37.876Z,34.10
2017-12-25T06:04:08.263Z,25.70
2017-12-25T06:06:39.346Z,29.87
2017-12-25T06:09:10.474Z,26.60
2017-12-25T06:11:44.587Z,26.17
2017-12-25T06:14:15.719Z,24.75
2017-12-25T06:16:46.424Z,27.30
2017-12-25T06:19:16.708Z,24.85
2017-12-25T06:21:47.305Z,24.60
2017-12-25T06:24:18.628Z,23.90
2017-12-25T06:26:49.983Z,25.83
2017-12-25T06:29:20.729Z,24.15
2017-12-25T06:31:52.287Z,31.33
2017-12-25T06:34:23.939Z,38.47
2017-12-25T06:36:56.074Z,31.65
2017-12-25T06:39:27.580Z,26.00
2017-12-25T06:41:58.328Z,25.37
2017-12-25T06:44:29.968Z,28.62
2017-12-25T06:47:00.779Z,25.37
2017-12-25T06:49:31.192Z,24.30
2017-12-25T06:52:02.395Z,25.58
2017-12-25T06:54:37.829Z,23.92
2017-12-25T06:57:10.301Z,23.00
2017-12-25T06:59:46.845Z,24.08
2017-12-25T07:03:22.502Z,23.73
2017-12-25T07:05:54.519Z,29.27
2017-12-25T07:08:25.695Z,26.92
2017-12-25T07:11:08.357Z,26.60
2017-12-25T07:13:39.949Z,26.25
2017-12-25T07:16:11.078Z,25.75
2017-12-25T07:18:41.829Z,22.83
2017-12-25T07:21:13.035Z,25.50
2017-12-25T07:23:43.645Z,22.20
2017-12-25T07:26:17.671Z,20.80
2017-12-25T07:28:49.143Z,25.15
2017-12-25T07:31:19.740Z,24.45
2017-12-25T07:33:51.602Z,24.05
2017-12-25T07:36:22.349Z,23.27
2017-12-25T07:38:52.862Z,26.87
2017-12-25T07:41:23.995Z,27.77
2017-12-25T07:43:54.884Z,25.30
2017-12-25T07:46:50.298Z,22.27
2017-12-25T07:49:21.825Z,20.30
2017-12-25T07:51:52.849Z,22.00
2017-12-25T07:54:23.508Z,20.40
2017-12-25T07:56:55.737Z,20.17
2017-12-25T07:59:39.361Z,21.50
2017-12-25T08:02:11.256Z,20.70
2017-12-25T08:04:42.847Z,22.30
2017-12-25T08:07:14.306Z,22.08
2017-12-25T08:09:45.836Z,21.52
2017-12-25T08:12:17.081Z,22.20
2017-12-25T08:28:39.809Z,23.20
2017-12-25T08:31:12.537Z,21.67
2017-12-25T08:33:43.170Z,22.90
2017-12-25T08:36:18.952Z,21.35
2017-12-25T08:38:52.132Z,20.20
2017-12-25T08:41:22.581Z,21.10
2017-12-25T08:45:50.000Z,19.60
2017-12-25T08:48:20.610Z,17.67
2017-12-25T08:50:51.413Z,17.20
2017-12-25T08:53:22.535Z,17.80
2017-12-25T08:55:54.012Z,17.52
2017-12-25T08:58:25.271Z,17.92
2017-12-25T09:00:56.721Z,19.80
2017-12-25T09:03:27.216Z,18.85
2017-12-25T09:05:58.582Z,17.70
2017-12-25T09:08:29.322Z,22.08
2017-12-25T09:10:59.819Z,22.53
2017-12-25T09:13:30.922Z,19.98
2017-12-25T09:16:01.678Z,20.60
2017-12-25T09:18:32.134Z,19.83
2017-12-25T09:21:03.233Z,18.70
2017-12-25T09:36:29.927Z,17.27
2017-12-25T09:39:02.284Z,16.73
2017-12-25T09:41:47.202Z,15.55
2017-12-25T09:44:18.753Z,19.90
2017-12-25T09:46:50.042Z,20.13
2017-12-25T09:49:21.207Z,15.02
2017-12-25T09:51:52.695Z,17.45
2017-12-25T09:54:23.670Z,11.23
2017-12-25T09:56:54.574Z,15.17
2017-12-25T09:59:25.769Z,13.15
2017-12-25T10:01:57.085Z,14.55
2017-12-25T10:04:30.963Z,15.30
2017-12-25T10:09:52.797Z,13.70
2017-12-25T10:12:23.408Z,14.10
2017-12-25T10:14:54.097Z,13.43
2017-12-25T10:17:25.782Z,3.20
2017-12-25T10:19:57.172Z,9.10
2017-12-25T10:22:30.707Z,12.15
2017-12-25T10:25:01.360Z,11.80
2017-12-25T10:27:40.233Z,11.52
2017-12-25T10:30:12.396Z,11.60
2017-12-25T10:32:44.432Z,12.15
2017-12-25T10:35:14.729Z,11.55
2017-12-25T10:37:47.012Z,10.07
2017-12-25T10:40:18.972Z,10.38
2017-12-25T10:42:49.628Z,9.23
2017-12-25T10:45:20.672Z,7.43
2017-12-25T10:47:52.975Z,4.68
2017-12-25T10:50:29.802Z,7.40
2017-12-25T10:53:01.712Z,11.20
2017-12-25T10:55:33.091Z,10.37
2017-12-25T10:58:03.586Z,11.70
2017-12-25T11:00:39.013Z,11.00
2017-12-25T11:03:10.749Z,11.60
2017-12-25T11:05:41.826Z,11.75
2017-12-25T11:08:13.294Z,12.50
2017-12-25T11:10:43.619Z,10.50
2017-12-25T11:13:14.527Z,11.27
2017-12-25T11:15:46.223Z,12.00
2017-12-25T11:18:17.233Z,12.00
2017-12-25T11:21:24.019Z,12.18
2017-12-25T11:23:54.843Z,13.23
2017-12-25T11:26:26.613Z,12.32
2017-12-25T11:28:58.949Z,11.20
2017-12-25T11:31:29.755Z,13.90
2017-12-25T11:34:16.657Z,12.63
2017-12-25T11:36:48.420Z,13.00
2017-12-25T11:39:20.067Z,13.27
2017-12-25T11:41:53.821Z,12.43
2017-12-25T11:44:27.266Z,14.75
2017-12-25T11:46:58.711Z,13.70
2017-12-25T11:49:41.818Z,14.13
2017-12-25T11:52:19.154Z,15.95
2017-12-25T11:54:50.304Z,14.65
2017-12-25T11:57:20.583Z,14.90
2017-12-25T11:59:51.263Z,16.40
2017-12-25T12:02:21.856Z,15.60
2017-12-25T12:04:53.158Z,15.07
2017-12-25T12:07:23.727Z,14.30
2017-12-25T12:09:56.368Z,14.50
2017-12-25T12:12:27.959Z,15.20
2017-12-25T12:15:01.148Z,15.43
2017-12-25T12:17:35.040Z,14.68
2017-12-25T12:20:06.212Z,16.07
2017-12-25T12:22:38.707Z,15.47
2017-12-25T12:25:09.432Z,17.00
2017-12-25T12:27:39.657Z,15.90
2017-12-25T12:30:12.033Z,15.60
2017-12-25T12:32:47.628Z,16.80
2017-12-25T12:35:19.664Z,17.20
2017-12-25T12:37:53.959Z,17.42
2017-12-25T12:40:24.880Z,16.50
2017-12-25T12:42:57.241Z,15.45
2017-12-25T12:45:33.041Z,15.40
2017-12-25T12:48:03.886Z,17.40
2017-12-25T12:50:37.779Z,18.45
2017-12-25T12:53:08.418Z,16.35
2017-12-25T12:55:39.863Z,17.37
2017-12-25T12:58:10.512Z,16.83
2017-12-25T13:00:42.026Z,15.18
2017-12-25T13:03:18.867Z,16.60
2017-12-25T13:05:50.204Z,16.60
2017-12-25T13:08:22.858Z,18.25
2017-12-25T13:10:53.527Z,18.50
2017-12-25T13:13:23.741Z,18.75
2017-12-25T13:15:54.017Z,21.48
2017-12-25T13:18:25.613Z,19.85
2017-12-25T13:20:56.269Z,21.05
2017-12-25T13:23:26.529Z,22.17
2017-12-25T13:25:57.618Z,22.77
2017-12-25T13:28:28.843Z,20.12
2017-12-25T13:31:02.716Z,20.40
2017-12-25T13:33:36.279Z,21.17
2017-12-25T13:36:06.669Z,20.40
2017-12-25T13:38:43.842Z,20.15
2017-12-25T13:41:15.654Z,22.67
2017-12-25T13:43:46.397Z,22.53
2017-12-25T13:46:16.733Z,22.35
2017-12-25T13:48:49.324Z,22.33
2017-12-25T13:51:21.446Z,22.83
2017-12-25T13:53:52.300Z,21.85
2017-12-25T13:56:23.336Z,22.25
2017-12-25T13:58:53.637Z,23.30
2017-12-25T14:01:23.932Z,22.77
2017-12-25T14:03:58.421Z,21.87
2017-12-25T14:06:30.277Z,19.00
2017-12-25T14:09:01.311Z,18.95
2017-12-25T14:11:32.316Z,24.08
2017-12-25T14:14:03.506Z,23.00
2017-12-25T14:16:33.927Z,24.15
2017-12-25T14:19:04.328Z,26.65
2017-12-25T14:21:35.457Z,23.95
2017-12-25T14:24:09.297Z,29.90
2017-12-25T14:26:39.979Z,30.47
2017-12-25T14:29:10.683Z,28.45
2017-12-25T14:31:41.020Z,31.10
2017-12-25T14:34:12.527Z,30.15
2017-12-25T14:36:43.441Z,26.70
2017-12-25T14:39:17.771Z,26.30
2017-12-25T14:41:49.574Z,33.17
2017-12-25T14:44:20.736Z,30.58
2017-12-25T14:46:51.101Z,29.80
2017-12-25T14:49:22.009Z,24.08
2017-12-25T14:51:52.894Z,28.55
2017-12-25T14:54:23.561Z,26.50
2017-12-25T14:56:58.185Z,33.45
2017-12-25T14:59:28.542Z,24.58
2017-12-25T15:01:59.223Z,23.83
2017-12-25T15:04:30.285Z,22.95
2017-12-25T15:07:01.239Z,30.40
2017-12-25T15:09:40.367Z,28.80
2017-12-25T15:12:11.547Z,40.12
2017-12-25T15:14:42.637Z,29.40
2017-12-25T15:17:14.102Z,28.38
2017-12-25T15:19:44.950Z,26.33
2017-12-25T15:22:15.277Z,31.35
2017-12-25T15:25:48.572Z,35.83
2017-12-25T15:28:18.850Z,30.52
2017-12-25T15:30:50.200Z,29.98
2017-12-25T15:33:22.216Z,28.10
2017-12-25T15:35:52.598Z,29.70
2017-12-25T15:38:29.233Z,24.93
2017-12-25T15:44:24.730Z,28.40
2017-12-25T15:46:56.972Z,23.27
2017-12-25T15:49:27.725Z,24.92
2017-12-25T15:51:58.072Z,32.90
2017-12-25T15:54:29.025Z,24.17
2017-12-25T15:57:00.680Z,23.65
2017-12-25T15:59:31.364Z,25.37
2017-12-25T16:02:03.052Z,22.73
2017-12-25T16:04:33.344Z,27.23
2017-12-25T16:07:04.082Z,31.75
2017-12-25T16:09:35.074Z,29.45
2017-12-25T16:12:06.083Z,25.33
2017-12-25T16:14:37.172Z,25.62
2017-12-25T16:17:07.397Z,24.40
2017-12-25T16:19:45.065Z,25.48
2017-12-25T16:22:17.274Z,23.12
2017-12-25T16:24:48.348Z,24.17
2017-12-25T16:27:18.983Z,23.50
2017-12-25T16:29:49.908Z,23.85
2017-12-25T16:32:22.661Z,22.97
2017-12-25T16:34:53.533Z,22.95
2017-12-25T16:37:24.670Z,24.67
2017-12-25T16:39:55.438Z,24.45
2017-12-25T16:42:26.107Z,23.73
2017-12-25T16:45:06.386Z,22.80
2017-12-25T16:47:38.534Z,24.80
2017-12-25T16:50:09.375Z,24.35
2017-12-25T16:52:40.000Z,22.60
2017-12-25T16:55:10.688Z,22.65
2017-12-25T16:57:41.250Z,23.87
2017-12-25T17:00:14.763Z,21.08
2017-12-25T17:02:48.115Z,19.52
2017-12-25T17:05:19.330Z,19.90
2017-12-25T17:07:51.380Z,21.55
2017-12-25T17:10:22.052Z,22.27
2017-12-25T17:12:53.249Z,21.30
2017-12-25T17:15:24.057Z,21.10
2017-12-25T17:17:55.603Z,21.30
2017-12-25T17:20:26.929Z,23.27
2017-12-25T17:22:57.792Z,32.00
2017-12-25T17:25:29.380Z,25.62
2017-12-25T17:28:00.777Z,25.00
2017-12-25T17:30:31.427Z,24.77
2017-12-25T17:33:23.810Z,22.60
2017-12-25T17:35:57.430Z,20.88
2017-12-25T17:38:29.872Z,21.40
2017-12-25T17:41:00.579Z,20.92
2017-12-25T17:43:31.308Z,20.48
2017-12-25T17:46:02.137Z,19.17
2017-12-25T17:48:32.711Z,19.52
2017-12-25T17:51:03.933Z,19.50
2017-12-25T17:53:37.062Z,20.83
2017-12-25T17:56:08.728Z,19.10
2017-12-25T17:58:40.733Z,16.85
2017-12-25T18:01:12.096Z,16.23
2017-12-25T18:03:43.128Z,17.43
2017-12-25T18:06:13.963Z,15.50
2017-12-25T18:08:51.484Z,16.23
2017-12-25T18:11:22.469Z,18.17
2017-12-25T18:13:52.762Z,17.30
2017-12-25T18:16:23.769Z,17.52
2017-12-25T18:18:54.732Z,16.00
2017-12-25T18:21:25.872Z,16.27
2017-12-25T18:23:57.440Z,8.35
2017-12-25T18:26:29.039Z,7.00
2017-12-25T18:28:59.823Z,4.97
2017-12-25T18:31:30.540Z,4.37
2017-12-25T18:34:05.357Z,3.65
2017-12-25T18:36:36.650Z,3.40
2017-12-25T18:39:07.863Z,3.78
2017-12-25T18:41:38.710Z,3.10
2017-12-25T18:44:10.049Z,3.35
2017-12-25T18:46:41.566Z,6.20
2017-12-25T18:49:12.789Z,6.87
2017-12-25T18:51:43.236Z,5.87
2017-12-25T18:54:13.818Z,4.90
2017-12-25T18:56:54.904Z,8.60
2017-12-25T18:59:26.773Z,4.00
2017-12-25T19:02:01.553Z,2.80
2017-12-25T19:04:36.568Z,4.87
2017-12-25T19:08:21.222Z,5.87
2017-12-25T19:10:52.558Z,3.60
2017-12-25T19:13:23.667Z,3.10
2017-12-25T19:15:54.557Z,3.12
2017-12-25T19:18:32.108Z,2.70
2017-12-25T19:21:04.302Z,3.20
2017-12-25T19:23:34.790Z,2.47
2017-12-25T19:26:05.246Z,2.70
2017-12-25T19:28:36.018Z,2.45
2017-12-25T19:31:06.487Z,1.90
2017-12-25T19:33:37.520Z,2.12
2017-12-25T19:36:14.109Z,3.42
2017-12-25T19:38:45.644Z,3.83
2017-12-25T19:41:22.638Z,2.45
2017-12-25T19:43:53.276Z,2.10
2017-12-25T19:46:24.714Z,2.28
2017-12-25T19:48:55.724Z,2.63
2017-12-25T19:51:26.518Z,2.60
2017-12-25T19:53:57.651Z,2.15
2017-12-25T19:56:28.647Z,2.95
2017-12-25T19:58:59.899Z,3.20
2017-12-25T20:01:31.435Z,2.70
2017-12-25T20:04:01.935Z,2.60
2017-12-25T20:06:32.609Z,2.50
2017-12-25T20:09:03.684Z,3.37
2017-12-25T20:11:36.312Z,3.30
2017-12-25T20:14:08.035Z,2.50
2017-12-25T20:16:53.959Z,2.60
2017-12-25T20:19:26.900Z,2.87
2017-12-25T20:21:57.488Z,3.30
2017-12-25T20:24:28.839Z,2.20
2017-12-25T20:26:59.953Z,2.12
2017-12-25T20:29:31.049Z,4.72
2017-12-25T20:32:13.856Z,4.30
2017-12-25T20:34:45.863Z,3.60
2017-12-25T20:37:18.255Z,3.40
2017-12-25T20:39:49.411Z,3.40
2017-12-25T20:42:20.207Z,3.97
2017-12-25T20:44:55.099Z,2.95
2017-12-25T20:47:38.899Z,4.00
2017-12-25T20:50:11.731Z,4.90
2017-12-25T20:52:42.074Z,7.47
2017-12-25T20:55:12.467Z,6.07
2017-12-25T20:57:43.412Z,3.30
2017-12-25T21:00:14.026Z,3.10
2017-12-25T21:02:44.762Z,2.95
2017-12-25T21:05:16.251Z,3.00
2017-12-25T21:07:48.108Z,2.30
2017-12-25T21:10:19.674Z,3.05
2017-12-25T21:12:50.003Z,3.33
2017-12-25T21:15:20.802Z,3.97
2017-12-25T21:17:51.773Z,3.30
2017-12-25T21:20:38.358Z,2.70
2017-12-25T21:23:09.374Z,2.60
2017-12-25T21:25:40.860Z,2.12
2017-12-25T21:28:11.119Z,2.60
2017-12-25T21:30:43.770Z,2.30
2017-12-25T21:33:16.753Z,2.08
2017-12-25T21:35:47.668Z,2.40
2017-12-25T21:38:18.764Z,2.10
2017-12-25T21:41:06.061Z,2.60
2017-12-25T21:43:36.752Z,2.62
2017-12-25T21:46:08.152Z,2.87
2017-12-25T21:48:39.385Z,3.30
2017-12-25T21:51:09.994Z,2.40
2017-12-25T21:53:41.066Z,2.30
2017-12-25T21:56:11.656Z,2.20
2017-12-25T21:58:42.289Z,2.28
2017-12-25T22:01:12.728Z,2.40
2017-12-25T22:03:43.332Z,1.90
2017-12-25T22:06:14.050Z,1.90
2017-12-25T22:08:45.447Z,2.20
2017-12-25T22:11:16.660Z,2.20
2017-12-25T22:13:47.754Z,2.00
2017-12-25T22:16:20.882Z,2.20
2017-12-25T22:18:52.991Z,2.22
2017-12-25T22:21:51.139Z,1.80
2017-12-25T22:24:22.674Z,1.60
2017-12-25T22:26:54.687Z,2.55
2017-12-25T22:29:25.892Z,2.20
2017-12-25T22:31:56.828Z,2.45
2017-12-25T22:34:28.694Z,2.20
2017-12-25T22:37:00.098Z,2.22
2017-12-25T22:39:30.819Z,2.40
2017-12-25T22:42:01.688Z,2.08
2017-12-25T22:44:32.532Z,1.80
2017-12-25T22:47:04.919Z,2.50
2017-12-25T22:49:35.834Z,2.10
2017-12-25T22:52:06.472Z,2.90
2017-12-25T22:54:36.974Z,6.10
2017-12-25T22:57:07.549Z,6.97
2017-12-25T22:59:38.447Z,8.57
2017-12-25T23:02:10.021Z,9.23
2017-12-25T23:04:41.072Z,10.18
2017-12-25T23:07:12.191Z,9.10
2017-12-25T23:09:43.640Z,8.52
2017-12-25T23:12:14.316Z,9.33
2017-12-25T23:14:46.252Z,9.88
2017-12-25T23:17:16.908Z,10.10
2017-12-25T23:19:49.557Z,9.02
2017-12-25T23:22:21.279Z,10.67
2017-12-25T23:24:52.200Z,11.40
2017-12-25T23:27:23.410Z,11.35
2017-12-25T23:29:54.620Z,10.48
2017-12-25T23:32:25.844Z,10.65
2017-12-25T23:34:56.658Z,10.60
2017-12-25T23:37:28.100Z,10.93
2017-12-25T23:39:58.709Z,9.55
2017-12-25T23:42:32.008Z,9.10
2017-12-25T23:45:02.729Z,9.35
2017-12-25T23:47:33.683Z,9.30
2017-12-25T23:50:04.220Z,9.23
2017-12-25T23:52:34.887Z,9.40
2017-12-25T23:55:06.258Z,8.05
2017-12-25T23:57:37.056Z,4.60
